Time;durP1;ratioP1;P1;durP2;ratioP2;P2;SDS_P1;SDS_P2;PMS_P1;PMS_P2;Temp;Humidity;BMP_temperature;BMP_pressure;BME280_temperature;BME280_humidity;BME280_pressure;Samples;Min_cycle;Max_cycle;Signal;HPM_P1;HPM_P2
2023/07/23 00:01:16;;;;;;;;;;;;;;;;;;7363738;19;837;-63
2023/07/23 00:03:44;;;;;;;;;;;;;;;;;;7364168;19;914;-63
2023/07/23 00:06:12;;;;;;;;;;;;;;;;;;7369960;19;858;-63
2023/07/23 00:08:40;;;;;;;;;;;;;;;;;;7367866;19;1848;-64
2023/07/23 00:11:08;;;;;;;;;;;;;;;;;;7370746;19;1785;-63
2023/07/23 00:13:36;;;;;;;;;;;;;;;;;;7370981;19;1848;-63
2023/07/23 00:16:05;;;;;;;;;;;;;;;;;;7371953;19;1837;-63
2023/07/23 00:18:33;;;;;;;;;;;;;;;;;;7368864;19;1705;-63
2023/07/23 00:21:01;;;;;;;;;;;;;;;;;;7371497;19;2004;-62
2023/07/23 00:23:30;;;;;;;;;;;;;;;;;;7371243;19;1919;-63
2023/07/23 00:25:58;;;;;;;;;;;;;;;;;;7371316;19;1682;-63
2023/07/23 00:28:26;;;;;;;;;;;;;;;;;;7368843;19;1786;-63
2023/07/23 00:30:55;;;;;;;;;;;;;;;;;;7370229;19;1881;-63
2023/07/23 00:33:23;;;;;;;;;;;;;;;;;;7371769;19;1805;-63
2023/07/23 00:35:52;;;;;;;;;;;;;;;;;;7369770;19;1631;-63
2023/07/23 00:38:20;;;;;;;;;;;;;;;;;;7369769;19;1938;-63
2023/07/23 00:40:49;;;;;;;;;;;;;;;;;;7370058;19;1629;-63
2023/07/23 00:43:17;;;;;;;;;;;;;;;;;;7369933;19;1790;-63
2023/07/23 00:45:45;;;;;;;;;;;;;;;;;;7369787;19;1729;-63
2023/07/23 00:48:13;;;;;;;;;;;;;;;;;;7368983;19;2047;-63
2023/07/23 00:50:41;;;;;;;;;;;;;;;;;;7370465;19;1684;-63
2023/07/23 00:53:09;;;;;;;;;;;;;;;;;;7368169;19;1507;-62
2023/07/23 00:55:38;;;;;;;;;;;;;;;;;;7370925;19;759;-63
2023/07/23 00:58:06;;;;;;;;;;;;;;;;;;7365877;19;1814;-63
2023/07/23 01:00:34;;;;;;;;;;;;;;;;;;7367026;19;839;-62
2023/07/23 01:03:02;;;;;;;;;;;;;;;;;;7369413;19;791;-63
2023/07/23 01:05:31;;;;;;;;;;;;;;;;;;7368006;19;1277;-62
2023/07/23 01:07:59;;;;;;;;;;;;;;;;;;7366565;19;1232;-63
2023/07/23 01:10:27;;;;;;;;;;;;;;;;;;7368105;19;798;-62
2023/07/23 01:12:55;;;;;;;;;;;;;;;;;;7372011;19;906;-62
2023/07/23 01:15:23;;;;;;;;;;;;;;;;;;7367998;19;862;-62
2023/07/23 01:17:52;;;;;;;;;;;;;;;;;;7364892;19;1846;-62
2023/07/23 01:20:20;;;;;;;;;;;;;;;;;;7366463;19;824;-63
2023/07/23 01:22:48;;;;;;;;;;;;;;;;;;7368048;19;825;-63
2023/07/23 01:25:16;;;;;;;;;;;;;;;;;;7369025;19;1657;-62
2023/07/23 01:27:44;;;;;;;;;;;;;;;;;;7364309;19;1780;-63
2023/07/23 01:30:13;;;;;;;;;;;;;;;;;;7367589;19;1750;-62
2023/07/23 01:32:41;;;;;;;;;;;;;;;;;;7367911;19;2556;-63
2023/07/23 01:35:11;;;;;;;;;;;;;;;;;;7369140;19;1864;-63
2023/07/23 01:37:39;;;;;;;;;;;;;;;;;;7368605;19;1874;-63
2023/07/23 01:40:07;;;;;;;;;;;;;;;;;;7371302;19;1189;-58
2023/07/23 01:42:35;;;;;;;;;;;;;;;;;;7368615;19;1844;-63
2023/07/23 01:45:04;;;;;;;;;;;;;;;;;;7370567;19;1832;-63
2023/07/23 01:47:32;;;;;;;;;;;;;;;;;;7367754;19;2059;-62
2023/07/23 01:50:00;;;;;;;;;;;;;;;;;;7366165;19;1889;-63
2023/07/23 01:52:29;;;;;;;;;;;;;;;;;;7369783;19;1779;-62
2023/07/23 01:54:57;;;;;;;;;;;;;;;;;;7367784;19;1939;-64
2023/07/23 01:57:25;;;;;;;;;;;;;;;;;;7366527;19;1849;-63
2023/07/23 01:59:53;;;;;;;;;;;;;;;;;;7368139;19;2116;-62
2023/07/23 02:02:21;;;;;;;;;;;;;;;;;;7367509;19;1839;-61
2023/07/23 02:04:49;;;;;;;;;;;;;;;;;;7368710;19;1700;-63
2023/07/23 02:07:18;;;;;;;;;;;;;;;;;;7368036;19;1725;-62
2023/07/23 02:09:46;;;;;;;;;;;;;;;;;;7366419;19;2009;-62
2023/07/23 02:12:14;;;;;;;;;;;;;;;;;;7367725;19;1785;-63
2023/07/23 02:14:42;;;;;;;;;;;;;;;;;;7368102;19;1622;-62
2023/07/23 02:17:10;;;;;;;;;;;;;;;;;;7365749;19;2005;-62
2023/07/23 02:19:43;;;;;;;;;;;;;;;;;;7366540;19;1887;-62
2023/07/23 02:22:11;;;;;;;;;;;;;;;;;;7368878;19;1687;-61
2023/07/23 02:24:39;;;;;;;;;;;;;;;;;;7367989;19;1585;-62
2023/07/23 02:27:08;;;;;;;;;;;;;;;;;;7364885;19;1792;-62
2023/07/23 02:29:36;;;;;;;;;;;;;;;;;;7366758;19;2190;-62
2023/07/23 02:32:04;;;;;;;;;;;;;;;;;;7367707;19;1587;-60
2023/07/23 02:34:32;;;;;;;;;;;;;;;;;;7367410;19;1698;-63
2023/07/23 02:37:00;;;;;;;;;;;;;;;;;;7367668;19;1913;-63
2023/07/23 02:39:30;;;;;;;;;;;;;;;;;;7367547;19;1660;-63
2023/07/23 02:41:58;;;;;;;;;;;;;;;;;;7367749;19;2210;-64
2023/07/23 02:44:26;;;;;;;;;;;;;;;;;;7368069;19;1527;-63
2023/07/23 02:46:55;;;;;;;;;;;;;;;;;;7367213;19;2117;-63
2023/07/23 02:49:23;;;;;;;;;;;;;;;;;;7367801;19;1927;-63
2023/07/23 02:51:51;;;;;;;;;;;;;;;;;;7369020;19;1390;-63
2023/07/23 02:54:19;;;;;;;;;;;;;;;;;;7366279;19;1374;-63
2023/07/23 02:56:48;;;;;;;;;;;;;;;;;;7363642;19;1853;-63
2023/07/23 02:59:16;;;;;;;;;;;;;;;;;;7363020;19;846;-63
2023/07/23 03:01:44;;;;;;;;;;;;;;;;;;7364729;19;838;-63
2023/07/23 03:04:13;;;;;;;;;;;;;;;;;;7365074;19;787;-63
2023/07/23 03:06:41;;;;;;;;;;;;;;;;;;7366598;19;1446;-63
2023/07/23 03:09:10;;;;;;;;;;;;;;;;;;7364353;19;825;-63
2023/07/23 03:11:38;;;;;;;;;;;;;;;;;;7368398;19;770;-63
2023/07/23 03:14:06;;;;;;;;;;;;;;;;;;7364474;19;852;-62
2023/07/23 03:16:35;;;;;;;;;;;;;;;;;;7364349;19;1277;-63
2023/07/23 03:19:03;;;;;;;;;;;;;;;;;;7360594;19;1857;-63
2023/07/23 03:21:32;;;;;;;;;;;;;;;;;;7363156;19;880;-62
2023/07/23 03:24:00;;;;;;;;;;;;;;;;;;7364646;19;1142;-62
2023/07/23 03:26:28;;;;;;;;;;;;;;;;;;7366224;19;2309;-63
2023/07/23 03:28:56;;;;;;;;;;;;;;;;;;7365192;19;1705;-63
2023/07/23 03:31:25;;;;;;;;;;;;;;;;;;7365729;19;1704;-63
2023/07/23 03:33:53;;;;;;;;;;;;;;;;;;7367596;19;1953;-63
2023/07/23 03:36:21;;;;;;;;;;;;;;;;;;7368089;19;1647;-63
2023/07/23 03:38:50;;;;;;;;;;;;;;;;;;7364538;19;1849;-63
2023/07/23 03:41:18;;;;;;;;;;;;;;;;;;7374643;19;1815;-63
2023/07/23 03:43:47;;;;;;;;;;;;;;;;;;7373409;19;2019;-63
2023/07/23 03:46:15;;;;;;;;;;;;;;;;;;7373766;19;1684;-63
2023/07/23 03:48:43;;;;;;;;;;;;;;;;;;7370509;19;2004;-63
2023/07/23 03:51:12;;;;;;;;;;;;;;;;;;7372405;19;1586;-63
2023/07/23 03:53:40;;;;;;;;;;;;;;;;;;7373059;19;1779;-63
2023/07/23 03:56:08;;;;;;;;;;;;;;;;;;7372167;19;1870;-62
2023/07/23 03:58:36;;;;;;;;;;;;;;;;;;7368121;19;1814;-63
2023/07/23 04:01:04;;;;;;;;;;;;;;;;;;7371965;19;1787;-63
2023/07/23 04:03:32;;;;;;;;;;;;;;;;;;7372413;19;1559;-63
2023/07/23 04:06:01;;;;;;;;;;;;;;;;;;7372359;19;1563;-63
2023/07/23 04:08:29;;;;;;;;;;;;;;;;;;7370038;19;1987;-63
2023/07/23 04:10:57;;;;;;;;;;;;;;;;;;7371370;19;1649;-63
2023/07/23 04:13:25;;;;;;;;;;;;;;;;;;7373793;19;1498;-62
2023/07/23 04:15:55;;;;;;;;;;;;;;;;;;7371847;19;2043;-62
2023/07/23 04:18:23;;;;;;;;;;;;;;;;;;7369084;19;1857;-63
2023/07/23 04:20:51;;;;;;;;;;;;;;;;;;7371113;19;2017;-63
2023/07/23 04:23:19;;;;;;;;;;;;;;;;;;7373341;19;1595;-63
2023/07/23 04:25:47;;;;;;;;;;;;;;;;;;7368583;19;1823;-63
2023/07/23 04:28:15;;;;;;;;;;;;;;;;;;7367692;19;1827;-63
2023/07/23 04:30:45;;;;;;;;;;;;;;;;;;7369939;19;1939;-63
2023/07/23 04:33:13;;;;;;;;;;;;;;;;;;7371572;19;1729;-63
2023/07/23 04:35:41;;;;;;;;;;;;;;;;;;7371076;19;1988;-62
2023/07/23 04:38:11;;;;;;;;;;;;;;;;;;7369075;19;1829;-63
2023/07/23 04:40:39;;;;;;;;;;;;;;;;;;7369252;19;1766;-64
2023/07/23 04:43:07;;;;;;;;;;;;;;;;;;7370980;19;1588;-63
2023/07/23 04:45:35;;;;;;;;;;;;;;;;;;7372509;19;1545;-63
2023/07/23 04:48:03;;;;;;;;;;;;;;;;;;7368849;19;1802;-62
2023/07/23 04:50:32;;;;;;;;;;;;;;;;;;7372194;19;1898;-62
2023/07/23 04:53:00;;;;;;;;;;;;;;;;;;7370748;19;894;-62
2023/07/23 04:55:28;;;;;;;;;;;;;;;;;;7373668;19;1615;-62
2023/07/23 04:57:56;;;;;;;;;;;;;;;;;;7367191;19;1865;-62
2023/07/23 05:00:24;;;;;;;;;;;;;;;;;;7368280;19;904;-62
2023/07/23 05:02:53;;;;;;;;;;;;;;;;;;7369497;19;799;-63
2023/07/23 05:05:21;;;;;;;;;;;;;;;;;;7369403;19;783;-63
2023/07/23 05:07:49;;;;;;;;;;;;;;;;;;7371262;19;1858;-61
2023/07/23 05:10:17;;;;;;;;;;;;;;;;;;7367602;19;1527;-62
2023/07/23 05:12:45;;;;;;;;;;;;;;;;;;7371587;19;1774;-64
2023/07/23 05:15:13;;;;;;;;;;;;;;;;;;7371382;19;1663;-62
2023/07/23 05:17:41;;;;;;;;;;;;;;;;;;7368338;19;1923;-62
2023/07/23 05:20:10;;;;;;;;;;;;;;;;;;7371900;19;1401;-65
2023/07/23 05:22:38;;;;;;;;;;;;;;;;;;7371296;19;2085;-62
2023/07/23 05:25:07;;;;;;;;;;;;;;;;;;7371027;19;1527;-62
2023/07/23 05:27:35;;;;;;;;;;;;;;;;;;7366706;19;1693;-62
2023/07/23 05:30:03;;;;;;;;;;;;;;;;;;7368757;19;1940;-60
2023/07/23 05:32:31;;;;;;;;;;;;;;;;;;7372088;19;1956;-64
2023/07/23 05:34:59;;;;;;;;;;;;;;;;;;7372331;19;1780;-62
2023/07/23 05:37:28;;;;;;;;;;;;;;;;;;7371228;19;1712;-62
2023/07/23 05:39:56;;;;;;;;;;;;;;;;;;7368849;19;1849;-59
2023/07/23 05:42:25;;;;;;;;;;;;;;;;;;7371073;19;1480;-60
2023/07/23 05:44:53;;;;;;;;;;;;;;;;;;7367632;19;1432;-62
2023/07/23 05:47:22;;;;;;;;;;;;;;;;;;7368198;19;1715;-61
2023/07/23 05:49:50;;;;;;;;;;;;;;;;;;7370148;19;1524;-63
2023/07/23 05:52:18;;;;;;;;;;;;;;;;;;7367139;19;1267;-62
2023/07/23 05:54:46;;;;;;;;;;;;;;;;;;7367969;19;797;-64
2023/07/23 05:57:14;;;;;;;;;;;;;;;;;;7366582;19;1276;-61
2023/07/23 05:59:45;;;;;;;;;;;;;;;;;;7364588;19;1838;-59
2023/07/23 06:02:13;;;;;;;;;;;;;;;;;;7366349;19;842;-63
2023/07/23 06:04:41;;;;;;;;;;;;;;;;;;7368825;19;782;-63
2023/07/23 06:07:10;;;;;;;;;;;;;;;;;;7366627;19;1349;-63
2023/07/23 06:09:38;;;;;;;;;;;;;;;;;;7366733;19;814;-65
2023/07/23 06:12:06;;;;;;;;;;;;;;;;;;7367851;19;800;-64
2023/07/23 06:14:34;;;;;;;;;;;;;;;;;;7368370;19;827;-60
2023/07/23 06:17:02;;;;;;;;;;;;;;;;;;7366725;19;1316;-62
2023/07/23 06:19:30;;;;;;;;;;;;;;;;;;7364014;19;1861;-63
2023/07/23 06:21:59;;;;;;;;;;;;;;;;;;7366453;19;804;-63
2023/07/23 06:24:27;;;;;;;;;;;;;;;;;;7365730;19;844;-62
2023/07/23 06:26:55;;;;;;;;;;;;;;;;;;7366301;19;1258;-63
2023/07/23 06:29:23;;;;;;;;;;;;;;;;;;7366147;19;806;-61
2023/07/23 06:31:51;;;;;;;;;;;;;;;;;;7366719;19;762;-61
2023/07/23 06:34:19;;;;;;;;;;;;;;;;;;7367568;19;820;-62
2023/07/23 06:36:48;;;;;;;;;;;;;;;;;;7366197;19;1337;-61
2023/07/23 06:39:16;;;;;;;;;;;;;;;;;;7364389;19;1839;-61
2023/07/23 06:41:44;;;;;;;;;;;;;;;;;;7366166;19;806;-62
2023/07/23 06:44:12;;;;;;;;;;;;;;;;;;7367231;19;866;-63
2023/07/23 06:46:41;;;;;;;;;;;;;;;;;;7365773;19;1325;-61
2023/07/23 06:49:12;;;;;;;;;;;;;;;;;;7365546;19;804;-62
2023/07/23 06:51:40;;;;;;;;;;;;;;;;;;7367139;19;771;-60
2023/07/23 06:54:08;;;;;;;;;;;;;;;;;;7366417;19;799;-63
2023/07/23 06:56:36;;;;;;;;;;;;;;;;;;7366023;19;1341;-63
2023/07/23 06:59:04;;;;;;;;;;;;;;;;;;7365174;19;1842;-61
2023/07/23 07:01:32;;;;;;;;;;;;;;;;;;7366564;19;738;-61
2023/07/23 07:03:58;;;;;;;;;;;;;;;;;;7366094;19;791;-62
2023/07/23 07:06:26;;;;;;;;;;;;;;;;;;7366286;19;795;-62
2023/07/23 07:08:54;;;;;;;;;;;;;;;;;;7362529;19;1352;-62
2023/07/23 07:11:23;;;;;;;;;;;;;;;;;;7365093;19;807;-64
2023/07/23 07:13:51;;;;;;;;;;;;;;;;;;7368503;19;812;-64
2023/07/23 07:16:20;;;;;;;;;;;;;;;;;;7372123;19;838;-64
2023/07/23 07:18:48;;;;;;;;;;;;;;;;;;7370172;19;1925;-63
2023/07/23 07:21:16;;;;;;;;;;;;;;;;;;7371692;19;869;-64
2023/07/23 07:23:44;;;;;;;;;;;;;;;;;;7371584;19;841;-64
2023/07/23 07:26:12;;;;;;;;;;;;;;;;;;7371327;19;828;-63
2023/07/23 07:28:41;;;;;;;;;;;;;;;;;;7368823;19;1274;-63
2023/07/23 07:31:10;;;;;;;;;;;;;;;;;;7372024;19;791;-63
2023/07/23 07:33:38;;;;;;;;;;;;;;;;;;7371505;19;810;-63
2023/07/23 07:36:07;;;;;;;;;;;;;;;;;;7371332;19;870;-63
2023/07/23 07:38:35;;;;;;;;;;;;;;;;;;7369473;19;1854;-63
2023/07/23 07:41:03;;;;;;;;;;;;;;;;;;7371080;19;771;-62
2023/07/23 07:43:31;;;;;;;;;;;;;;;;;;7370983;19;780;-62
2023/07/23 07:46:00;;;;;;;;;;;;;;;;;;7371005;19;814;-63
2023/07/23 07:48:28;;;;;;;;;;;;;;;;;;7368569;19;1328;-63
2023/07/23 07:50:57;;;;;;;;;;;;;;;;;;7371074;19;818;-64
2023/07/23 07:53:25;;;;;;;;;;;;;;;;;;7371208;19;783;-62
2023/07/23 07:55:53;;;;;;;;;;;;;;;;;;7370704;19;879;-63
2023/07/23 07:58:24;;;;;;;;;;;;;;;;;;7367102;19;1811;-63
2023/07/23 08:00:52;;;;;;;;;;;;;;;;;;7371383;19;580;-63
2023/07/23 08:03:21;;;;;;;;;;;;;;;;;;7370661;19;833;-62
2023/07/23 08:05:49;;;;;;;;;;;;;;;;;;7371101;19;800;-63
2023/07/23 08:08:17;;;;;;;;;;;;;;;;;;7368389;19;1314;-61
2023/07/23 08:10:45;;;;;;;;;;;;;;;;;;7370837;19;891;-63
2023/07/23 08:13:13;;;;;;;;;;;;;;;;;;7370638;19;862;-63
2023/07/23 08:15:41;;;;;;;;;;;;;;;;;;7370768;19;794;-63
2023/07/23 08:18:10;;;;;;;;;;;;;;;;;;7368444;19;1267;-63
2023/07/23 08:20:38;;;;;;;;;;;;;;;;;;7367974;19;1830;-63
2023/07/23 08:23:06;;;;;;;;;;;;;;;;;;7370432;19;799;-63
2023/07/23 08:25:34;;;;;;;;;;;;;;;;;;7368312;19;823;-63
2023/07/23 08:28:03;;;;;;;;;;;;;;;;;;7367869;19;1305;-63
2023/07/23 08:30:32;;;;;;;;;;;;;;;;;;7368343;19;767;-63
2023/07/23 08:33:00;;;;;;;;;;;;;;;;;;7370081;19;827;-63
2023/07/23 08:35:28;;;;;;;;;;;;;;;;;;7369967;19;873;-63
2023/07/23 08:37:56;;;;;;;;;;;;;;;;;;7368340;19;1279;-63
2023/07/23 08:40:24;;;;;;;;;;;;;;;;;;7367542;19;1860;-63
2023/07/23 08:42:52;;;;;;;;;;;;;;;;;;7369087;19;819;-63
2023/07/23 08:45:20;;;;;;;;;;;;;;;;;;7369289;19;822;-63
2023/07/23 08:47:48;;;;;;;;;;;;;;;;;;7367486;19;1280;-63
2023/07/23 08:50:17;;;;;;;;;;;;;;;;;;7369122;19;809;-62
2023/07/23 08:52:45;;;;;;;;;;;;;;;;;;7369268;19;811;-60
2023/07/23 08:55:13;;;;;;;;;;;;;;;;;;7369360;19;799;-63
2023/07/23 08:57:41;;;;;;;;;;;;;;;;;;7368594;19;1324;-62
2023/07/23 09:00:09;;;;;;;;;;;;;;;;;;7366871;19;1842;-63
2023/07/23 09:02:37;;;;;;;;;;;;;;;;;;7368729;19;818;-63
2023/07/23 09:05:06;;;;;;;;;;;;;;;;;;7368729;19;811;-61
2023/07/23 09:07:34;;;;;;;;;;;;;;;;;;7367335;19;1430;-63
2023/07/23 09:10:02;;;;;;;;;;;;;;;;;;7368098;19;828;-63
2023/07/23 09:12:30;;;;;;;;;;;;;;;;;;7368955;19;896;-63
2023/07/23 09:14:59;;;;;;;;;;;;;;;;;;7368645;19;851;-64
2023/07/23 09:17:27;;;;;;;;;;;;;;;;;;7367785;19;1350;-62
2023/07/23 09:19:55;;;;;;;;;;;;;;;;;;7366563;19;1846;-64
2023/07/23 09:22:23;;;;;;;;;;;;;;;;;;7366671;19;1068;-64
2023/07/23 09:24:51;;;;;;;;;;;;;;;;;;7368630;19;755;-61
2023/07/23 09:27:21;;;;;;;;;;;;;;;;;;7367103;19;1361;-64
2023/07/23 09:29:49;;;;;;;;;;;;;;;;;;7367102;19;829;-64
2023/07/23 09:32:17;;;;;;;;;;;;;;;;;;7368391;19;869;-63
2023/07/23 09:34:45;;;;;;;;;;;;;;;;;;7368114;19;874;-64
2023/07/23 09:37:13;;;;;;;;;;;;;;;;;;7366986;19;1286;-63
2023/07/23 09:39:41;;;;;;;;;;;;;;;;;;7366321;19;1857;-63
2023/07/23 09:42:10;;;;;;;;;;;;;;;;;;7368206;19;866;-64
2023/07/23 09:44:38;;;;;;;;;;;;;;;;;;7368274;19;919;-63
2023/07/23 09:47:06;;;;;;;;;;;;;;;;;;7367439;19;1333;-63
2023/07/23 09:49:34;;;;;;;;;;;;;;;;;;7367384;19;827;-64
2023/07/23 09:52:03;;;;;;;;;;;;;;;;;;7367615;19;804;-64
2023/07/23 09:54:31;;;;;;;;;;;;;;;;;;7366439;19;925;-64
2023/07/23 09:56:59;;;;;;;;;;;;;;;;;;7367695;19;1286;-62
2023/07/23 09:59:27;;;;;;;;;;;;;;;;;;7366090;19;1837;-64
2023/07/23 10:01:55;;;;;;;;;;;;;;;;;;7367259;19;872;-64
2023/07/23 10:04:23;;;;;;;;;;;;;;;;;;7367723;19;867;-63
2023/07/23 10:06:51;;;;;;;;;;;;;;;;;;7366669;19;1279;-64
2023/07/23 10:09:20;;;;;;;;;;;;;;;;;;7366346;19;869;-62
2023/07/23 10:11:48;;;;;;;;;;;;;;;;;;7364772;19;853;-63
2023/07/23 10:14:16;;;;;;;;;;;;;;;;;;7367303;19;811;-62
2023/07/23 10:16:44;;;;;;;;;;;;;;;;;;7367024;19;1325;-62
2023/07/23 10:19:12;;;;;;;;;;;;;;;;;;7365952;19;1838;-64
2023/07/23 10:21:40;;;;;;;;;;;;;;;;;;7366503;19;829;-66
2023/07/23 10:24:08;;;;;;;;;;;;;;;;;;7366935;19;855;-65
2023/07/23 10:26:37;;;;;;;;;;;;;;;;;;7367131;19;1375;-66
2023/07/23 10:29:05;;;;;;;;;;;;;;;;;;7364458;19;829;-65
2023/07/23 10:31:33;;;;;;;;;;;;;;;;;;7366447;19;944;-65
2023/07/23 10:34:01;;;;;;;;;;;;;;;;;;7366724;19;857;-65
2023/07/23 10:36:30;;;;;;;;;;;;;;;;;;7367167;19;845;-65
2023/07/23 10:38:58;;;;;;;;;;;;;;;;;;7364405;19;925;-65
2023/07/23 10:41:26;;;;;;;;;;;;;;;;;;7364180;19;1845;-66
2023/07/23 10:43:54;;;;;;;;;;;;;;;;;;7367140;19;869;-64
2023/07/23 10:46:23;;;;;;;;;;;;;;;;;;7365433;19;793;-65
2023/07/23 10:48:51;;;;;;;;;;;;;;;;;;7361245;19;1335;-63
2023/07/23 10:51:19;;;;;;;;;;;;;;;;;;7366347;19;819;-64
2023/07/23 10:53:47;;;;;;;;;;;;;;;;;;7365952;19;803;-65
2023/07/23 10:56:15;;;;;;;;;;;;;;;;;;7366107;19;811;-63
2023/07/23 10:58:43;;;;;;;;;;;;;;;;;;7362329;19;1314;-63
2023/07/23 11:01:11;;;;;;;;;;;;;;;;;;7363864;19;1850;-64
2023/07/23 11:03:40;;;;;;;;;;;;;;;;;;7366537;19;858;-63
2023/07/23 11:06:08;;;;;;;;;;;;;;;;;;7365894;19;795;-63
2023/07/23 11:08:36;;;;;;;;;;;;;;;;;;7362410;19;1228;-63
2023/07/23 11:11:05;;;;;;;;;;;;;;;;;;7365403;19;933;-63
2023/07/23 11:13:33;;;;;;;;;;;;;;;;;;7365978;19;862;-63
2023/07/23 11:16:01;;;;;;;;;;;;;;;;;;7365567;19;842;-64
2023/07/23 11:18:29;;;;;;;;;;;;;;;;;;7360608;19;1291;-63
2023/07/23 11:21:02;;;;;;;;;;;;;;;;;;7363432;19;1830;-63
2023/07/23 11:23:31;;;;;;;;;;;;;;;;;;7365023;19;728;-63
2023/07/23 11:25:59;;;;;;;;;;;;;;;;;;7364726;19;826;-64
2023/07/23 11:28:27;;;;;;;;;;;;;;;;;;7361933;19;1327;-64
2023/07/23 11:30:55;;;;;;;;;;;;;;;;;;7364902;19;834;-65
2023/07/23 11:33:24;;;;;;;;;;;;;;;;;;7365208;19;870;-64
2023/07/23 11:35:52;;;;;;;;;;;;;;;;;;7365193;19;833;-62
2023/07/23 11:38:20;;;;;;;;;;;;;;;;;;7362115;19;1289;-63
2023/07/23 11:40:48;;;;;;;;;;;;;;;;;;7362872;19;1847;-64
2023/07/23 11:43:16;;;;;;;;;;;;;;;;;;7364923;19;824;-63
2023/07/23 11:45:44;;;;;;;;;;;;;;;;;;7364706;19;807;-63
2023/07/23 11:48:12;;;;;;;;;;;;;;;;;;7361323;19;1305;-63
2023/07/23 11:50:40;;;;;;;;;;;;;;;;;;7364067;19;792;-60
2023/07/23 11:53:09;;;;;;;;;;;;;;;;;;7363728;19;881;-65
2023/07/23 11:55:37;;;;;;;;;;;;;;;;;;7363509;19;889;-65
2023/07/23 11:58:05;;;;;;;;;;;;;;;;;;7361585;19;1286;-63
2023/07/23 12:00:35;;;;;;;;;;;;;;;;;;7365151;19;1841;-61
2023/07/23 12:03:03;;;;;;;;;;;;;;;;;;7371078;19;758;-62
2023/07/23 12:05:31;;;;;;;;;;;;;;;;;;7370766;19;828;-63
2023/07/23 12:07:59;;;;;;;;;;;;;;;;;;7368447;19;1278;-63
2023/07/23 12:10:28;;;;;;;;;;;;;;;;;;7369719;19;806;-63
2023/07/23 12:12:56;;;;;;;;;;;;;;;;;;7370384;19;815;-62
2023/07/23 12:15:24;;;;;;;;;;;;;;;;;;7370961;19;799;-62
2023/07/23 12:17:53;;;;;;;;;;;;;;;;;;7368988;19;1337;-63
2023/07/23 12:20:22;;;;;;;;;;;;;;;;;;7368689;19;1837;-63
2023/07/23 12:22:50;;;;;;;;;;;;;;;;;;7369983;19;775;-64
2023/07/23 12:25:18;;;;;;;;;;;;;;;;;;7369873;19;858;-61
2023/07/23 12:27:46;;;;;;;;;;;;;;;;;;7368043;19;1338;-63
2023/07/23 12:30:14;;;;;;;;;;;;;;;;;;7369303;19;838;-64
2023/07/23 12:32:42;;;;;;;;;;;;;;;;;;7369351;19;896;-63
2023/07/23 12:35:10;;;;;;;;;;;;;;;;;;7369499;19;799;-65
2023/07/23 12:37:38;;;;;;;;;;;;;;;;;;7368564;19;1341;-63
2023/07/23 12:40:07;;;;;;;;;;;;;;;;;;7367962;19;1841;-63
2023/07/23 12:42:35;;;;;;;;;;;;;;;;;;7369905;19;819;-63
2023/07/23 12:45:03;;;;;;;;;;;;;;;;;;7369503;19;875;-59
2023/07/23 12:47:31;;;;;;;;;;;;;;;;;;7368344;19;1366;-63
2023/07/23 12:50:00;;;;;;;;;;;;;;;;;;7367204;19;854;-63
2023/07/23 12:52:28;;;;;;;;;;;;;;;;;;7369650;19;1672;-63
2023/07/23 12:54:56;;;;;;;;;;;;;;;;;;7369645;19;762;-63
2023/07/23 12:57:24;;;;;;;;;;;;;;;;;;7369077;19;1258;-63
2023/07/23 12:59:52;;;;;;;;;;;;;;;;;;7369009;19;1845;-62
2023/07/23 13:02:21;;;;;;;;;;;;;;;;;;7369981;19;853;-63
2023/07/23 13:04:49;;;;;;;;;;;;;;;;;;7373438;19;1885;-63
2023/07/23 13:07:17;;;;;;;;;;;;;;;;;;7367645;19;1392;-63
2023/07/23 13:09:45;;;;;;;;;;;;;;;;;;7368063;19;874;-63
2023/07/23 13:12:13;;;;;;;;;;;;;;;;;;7367733;19;869;-62
2023/07/23 13:14:41;;;;;;;;;;;;;;;;;;7366753;19;779;-63
2023/07/23 13:17:10;;;;;;;;;;;;;;;;;;7367950;19;1282;-63
2023/07/23 13:19:38;;;;;;;;;;;;;;;;;;7366427;19;785;-63
2023/07/23 13:22:07;;;;;;;;;;;;;;;;;;7366568;19;1848;-63
2023/07/23 13:24:35;;;;;;;;;;;;;;;;;;7368194;19;801;-63
2023/07/23 13:27:04;;;;;;;;;;;;;;;;;;7367744;19;1290;-62
2023/07/23 13:29:32;;;;;;;;;;;;;;;;;;7367728;19;799;-63
2023/07/23 13:32:00;;;;;;;;;;;;;;;;;;7368437;19;819;-60
2023/07/23 13:34:29;;;;;;;;;;;;;;;;;;7368371;19;838;-62
2023/07/23 13:36:57;;;;;;;;;;;;;;;;;;7365502;19;1298;-61
2023/07/23 13:39:25;;;;;;;;;;;;;;;;;;7367429;19;807;-62
2023/07/23 13:41:55;;;;;;;;;;;;;;;;;;7365691;19;1857;-61
2023/07/23 13:44:23;;;;;;;;;;;;;;;;;;7368025;19;850;-62
2023/07/23 13:46:52;;;;;;;;;;;;;;;;;;7367747;19;1270;-63
2023/07/23 13:49:20;;;;;;;;;;;;;;;;;;7367440;19;795;-64
2023/07/23 13:51:48;;;;;;;;;;;;;;;;;;7368100;19;873;-61
2023/07/23 13:54:16;;;;;;;;;;;;;;;;;;7368506;19;934;-61
2023/07/23 13:56:44;;;;;;;;;;;;;;;;;;7368964;19;1279;-64
2023/07/23 13:59:13;;;;;;;;;;;;;;;;;;7370034;19;874;-63
2023/07/23 14:01:41;;;;;;;;;;;;;;;;;;7368729;19;1845;-61
2023/07/23 14:04:09;;;;;;;;;;;;;;;;;;7369822;19;866;-64
2023/07/23 14:06:37;;;;;;;;;;;;;;;;;;7369411;19;1278;-61
2023/07/23 14:09:06;;;;;;;;;;;;;;;;;;7365968;19;830;-62
2023/07/23 14:11:34;;;;;;;;;;;;;;;;;;7367272;19;744;-63
2023/07/23 14:14:02;;;;;;;;;;;;;;;;;;7368086;19;703;-63
2023/07/23 14:16:31;;;;;;;;;;;;;;;;;;7367819;19;857;-61
2023/07/23 14:18:59;;;;;;;;;;;;;;;;;;7367378;19;857;-61
2023/07/23 14:21:27;;;;;;;;;;;;;;;;;;7365573;19;1850;-62
2023/07/23 14:23:55;;;;;;;;;;;;;;;;;;7364318;19;799;-60
2023/07/23 14:26:24;;;;;;;;;;;;;;;;;;7367345;19;818;-61
2023/07/23 14:28:52;;;;;;;;;;;;;;;;;;7362514;19;1294;-61
2023/07/23 14:31:20;;;;;;;;;;;;;;;;;;7366702;19;827;-59
2023/07/23 14:33:48;;;;;;;;;;;;;;;;;;7367051;19;834;-63
2023/07/23 14:36:16;;;;;;;;;;;;;;;;;;7365197;19;831;-62
2023/07/23 14:38:45;;;;;;;;;;;;;;;;;;7363230;19;1236;-61
2023/07/23 14:41:13;;;;;;;;;;;;;;;;;;7365953;19;1830;-62
2023/07/23 14:43:41;;;;;;;;;;;;;;;;;;7366279;19;802;-61
2023/07/23 14:46:09;;;;;;;;;;;;;;;;;;7366236;19;868;-63
2023/07/23 14:48:37;;;;;;;;;;;;;;;;;;7363013;19;1315;-62
2023/07/23 14:51:05;;;;;;;;;;;;;;;;;;7365775;19;802;-61
2023/07/23 14:53:34;;;;;;;;;;;;;;;;;;7366560;19;846;-62
2023/07/23 14:56:02;;;;;;;;;;;;;;;;;;7366413;19;818;-61
2023/07/23 14:58:30;;;;;;;;;;;;;;;;;;7362688;19;1281;-60
2023/07/23 15:00:58;;;;;;;;;;;;;;;;;;7365217;19;1846;-61
2023/07/23 15:03:26;;;;;;;;;;;;;;;;;;7365775;19;835;-62
2023/07/23 15:05:54;;;;;;;;;;;;;;;;;;7366022;19;824;-62
2023/07/23 15:08:23;;;;;;;;;;;;;;;;;;7361930;19;1294;-61
2023/07/23 15:10:51;;;;;;;;;;;;;;;;;;7365236;19;810;-64
2023/07/23 15:13:19;;;;;;;;;;;;;;;;;;7364583;19;963;-61
2023/07/23 15:15:47;;;;;;;;;;;;;;;;;;7365684;19;810;-62
2023/07/23 15:18:15;;;;;;;;;;;;;;;;;;7362396;19;1272;-63
2023/07/23 15:20:43;;;;;;;;;;;;;;;;;;7366573;19;1853;-60
2023/07/23 15:23:12;;;;;;;;;;;;;;;;;;7364937;19;844;-63
2023/07/23 15:25:40;;;;;;;;;;;;;;;;;;7364857;19;822;-62
2023/07/23 15:28:08;;;;;;;;;;;;;;;;;;7362040;19;1312;-61
2023/07/23 15:30:36;;;;;;;;;;;;;;;;;;7365569;19;811;-61
2023/07/23 15:33:04;;;;;;;;;;;;;;;;;;7364889;19;806;-62
2023/07/23 15:35:32;;;;;;;;;;;;;;;;;;7369939;19;803;-61
2023/07/23 15:38:00;;;;;;;;;;;;;;;;;;7370015;19;1352;-62
2023/07/23 15:40:29;;;;;;;;;;;;;;;;;;7370498;19;878;-62
2023/07/23 15:42:57;;;;;;;;;;;;;;;;;;7369023;19;1861;-60
2023/07/23 15:45:25;;;;;;;;;;;;;;;;;;7371548;19;799;-61
2023/07/23 15:47:53;;;;;;;;;;;;;;;;;;7370303;19;1362;-62
2023/07/23 15:50:21;;;;;;;;;;;;;;;;;;7370378;19;772;-62
2023/07/23 15:52:49;;;;;;;;;;;;;;;;;;7370629;19;834;-58
2023/07/23 15:55:17;;;;;;;;;;;;;;;;;;7371038;19;878;-62
2023/07/23 15:57:45;;;;;;;;;;;;;;;;;;7370077;19;1258;-62
2023/07/23 16:00:14;;;;;;;;;;;;;;;;;;7370170;19;858;-62
2023/07/23 16:02:42;;;;;;;;;;;;;;;;;;7368531;19;1857;-62
2023/07/23 16:05:10;;;;;;;;;;;;;;;;;;7370245;19;807;-62
2023/07/23 16:07:38;;;;;;;;;;;;;;;;;;7369188;19;1348;-62
2023/07/23 16:10:06;;;;;;;;;;;;;;;;;;7370138;19;988;-63
2023/07/23 16:12:34;;;;;;;;;;;;;;;;;;7370286;19;810;-62
2023/07/23 16:15:02;;;;;;;;;;;;;;;;;;7370284;19;830;-62
2023/07/23 16:17:30;;;;;;;;;;;;;;;;;;7369144;19;1341;-63
2023/07/23 16:19:59;;;;;;;;;;;;;;;;;;7368797;19;866;-62
2023/07/23 16:22:27;;;;;;;;;;;;;;;;;;7370445;19;1838;-64
2023/07/23 16:24:55;;;;;;;;;;;;;;;;;;7373238;19;1358;-62
2023/07/23 16:27:25;;;;;;;;;;;;;;;;;;7370259;19;1903;-62
2023/07/23 16:29:53;;;;;;;;;;;;;;;;;;7369862;19;937;-62
2023/07/23 16:32:21;;;;;;;;;;;;;;;;;;7370669;19;2083;-64
2023/07/23 16:34:49;;;;;;;;;;;;;;;;;;7371865;19;1471;-64
2023/07/23 16:37:18;;;;;;;;;;;;;;;;;;7368773;19;1341;-65
2023/07/23 16:39:46;;;;;;;;;;;;;;;;;;7369129;19;1751;-63
2023/07/23 16:42:14;;;;;;;;;;;;;;;;;;7372419;19;1856;-63
2023/07/23 16:44:43;;;;;;;;;;;;;;;;;;7369505;19;859;-63
2023/07/23 16:47:11;;;;;;;;;;;;;;;;;;7367289;19;1283;-62
2023/07/23 16:49:39;;;;;;;;;;;;;;;;;;7367947;19;2101;-62
2023/07/23 16:52:08;;;;;;;;;;;;;;;;;;7370352;19;1717;-65
2023/07/23 16:54:36;;;;;;;;;;;;;;;;;;7370938;19;1659;-65
2023/07/23 16:57:04;;;;;;;;;;;;;;;;;;7370431;19;1912;-65
2023/07/23 16:59:32;;;;;;;;;;;;;;;;;;7372370;19;1490;-62
2023/07/23 17:02:00;;;;;;;;;;;;;;;;;;7366837;19;1839;-61
2023/07/23 17:04:28;;;;;;;;;;;;;;;;;;7371897;19;1811;-64
2023/07/23 17:06:56;;;;;;;;;;;;;;;;;;7368874;19;1872;-63
2023/07/23 17:09:24;;;;;;;;;;;;;;;;;;7371505;19;1768;-61
2023/07/23 17:11:53;;;;;;;;;;;;;;;;;;7372222;19;1971;-64
2023/07/23 17:14:21;;;;;;;;;;;;;;;;;;7371887;19;1798;-65
2023/07/23 17:16:49;;;;;;;;;;;;;;;;;;7373057;19;1754;-64